Terminal Aerodrome Forecast
Issued by NWS Mt. Holly, NJ

Home | Current Version | Previous Version | Text Only | Print | Product List | Glossary On
Versions: 1 2 3 4 5 6 7 8 9 10 11 12 13 14 15 16 17 18 19 20
320
FTUS41 KPHI 090246 AAB
TAFACY
TAF AMD
KACY 090246Z 0903/0924 07010KT P6SM -SN OVC025
      TEMPO 0903/0905 2SM -SN OVC010
     FM090500 08006KT 4SM -SN OVC010
     FM090800 05008KT 1SM -SN OVC006
     FM091300 05012G20KT 4SM -SN OVC010
     FM092000 02010KT 3/4SM -SN OVC005=

USA.gov is the U.S. government's official web portal to all federal, state and local government web resources and services.